sensor_id;sensor_type;location;lat;lon;timestamp;P1;durP1;ratioP1;P2;durP2;ratioP2
52918;SDS011;38793;52.690;6.812;2023-04-24T00:00:16;2.73;;;2.63;;
52918;SDS011;38793;52.690;6.812;2023-04-24T00:02:42;2.70;;;2.50;;
52918;SDS011;38793;52.690;6.812;2023-04-24T00:05:13;3.97;;;2.70;;
52918;SDS011;38793;52.690;6.812;2023-04-24T00:07:40;3.78;;;3.47;;
52918;SDS011;38793;52.690;6.812;2023-04-24T00:12:32;2.00;;;1.90;;
52918;SDS011;38793;52.690;6.812;2023-04-24T00:14:57;2.60;;;2.47;;
52918;SDS011;38793;52.690;6.812;2023-04-24T00:17:23;2.13;;;1.50;;
52918;SDS011;38793;52.690;6.812;2023-04-24T00:19:48;1.10;;;1.00;;
52918;SDS011;38793;52.690;6.812;2023-04-24T00:22:16;1.00;;;0.63;;
52918;SDS011;38793;52.690;6.812;2023-04-24T00:24:42;2.03;;;1.00;;
52918;SDS011;38793;52.690;6.812;2023-04-24T00:27:08;0.82;;;0.82;;
52918;SDS011;38793;52.690;6.812;2023-04-24T00:29:33;1.23;;;0.60;;
52918;SDS011;38793;52.690;6.812;2023-04-24T00:31:59;1.88;;;0.63;;
52918;SDS011;38793;52.690;6.812;2023-04-24T00:34:25;0.70;;;0.50;;
52918;SDS011;38793;52.690;6.812;2023-04-24T00:36:50;0.52;;;0.52;;
52918;SDS011;38793;52.690;6.812;2023-04-24T00:39:20;2.05;;;0.95;;
52918;SDS011;38793;52.690;6.812;2023-04-24T00:41:46;0.43;;;0.43;;
52918;SDS011;38793;52.690;6.812;2023-04-24T00:44:13;1.80;;;0.43;;
52918;SDS011;38793;52.690;6.812;2023-04-24T00:49:05;0.60;;;0.60;;
52918;SDS011;38793;52.690;6.812;2023-04-24T00:51:31;2.67;;;0.70;;
52918;SDS011;38793;52.690;6.812;2023-04-24T00:53:57;0.68;;;0.68;;
52918;SDS011;38793;52.690;6.812;2023-04-24T00:56:24;1.17;;;1.08;;
52918;SDS011;38793;52.690;6.812;2023-04-24T00:58:50;1.70;;;1.33;;
52918;SDS011;38793;52.690;6.812;2023-04-24T01:01:15;6.00;;;1.08;;
52918;SDS011;38793;52.690;6.812;2023-04-24T01:03:41;2.35;;;0.95;;
52918;SDS011;38793;52.690;6.812;2023-04-24T01:06:07;1.27;;;1.17;;
52918;SDS011;38793;52.690;6.812;2023-04-24T01:11:00;1.27;;;1.17;;
52918;SDS011;38793;52.690;6.812;2023-04-24T01:13:30;1.65;;;1.50;;
52918;SDS011;38793;52.690;6.812;2023-04-24T01:15:56;2.83;;;2.03;;
52918;SDS011;38793;52.690;6.812;2023-04-24T01:18:22;2.40;;;2.30;;
52918;SDS011;38793;52.690;6.812;2023-04-24T01:20:48;2.23;;;2.10;;
52918;SDS011;38793;52.690;6.812;2023-04-24T01:23:17;2.63;;;2.42;;
52918;SDS011;38793;52.690;6.812;2023-04-24T01:25:43;3.30;;;3.10;;
52918;SDS011;38793;52.690;6.812;2023-04-24T01:28:09;3.88;;;3.40;;
52918;SDS011;38793;52.690;6.812;2023-04-24T01:30:34;4.55;;;4.00;;
52918;SDS011;38793;52.690;6.812;2023-04-24T01:33:00;5.87;;;4.63;;
52918;SDS011;38793;52.690;6.812;2023-04-24T01:35:26;5.38;;;4.97;;
52918;SDS011;38793;52.690;6.812;2023-04-24T01:37:52;7.35;;;6.65;;
52918;SDS011;38793;52.690;6.812;2023-04-24T01:40:17;7.73;;;7.03;;
52918;SDS011;38793;52.690;6.812;2023-04-24T01:42:43;7.73;;;7.03;;
52918;SDS011;38793;52.690;6.812;2023-04-24T01:45:10;7.80;;;7.05;;
52918;SDS011;38793;52.690;6.812;2023-04-24T01:47:37;7.75;;;7.07;;
52918;SDS011;38793;52.690;6.812;2023-04-24T01:50:04;10.43;;;8.18;;
52918;SDS011;38793;52.690;6.812;2023-04-24T01:52:30;8.85;;;8.02;;
52918;SDS011;38793;52.690;6.812;2023-04-24T01:55:01;6.80;;;6.15;;
52918;SDS011;38793;52.690;6.812;2023-04-24T01:57:30;9.43;;;6.82;;
52918;SDS011;38793;52.690;6.812;2023-04-24T01:59:56;6.25;;;5.75;;
52918;SDS011;38793;52.690;6.812;2023-04-24T02:02:22;6.17;;;5.73;;
52918;SDS011;38793;52.690;6.812;2023-04-24T02:04:49;6.30;;;5.32;;
52918;SDS011;38793;52.690;6.812;2023-04-24T02:07:15;6.03;;;5.30;;
52918;SDS011;38793;52.690;6.812;2023-04-24T02:09:41;4.47;;;4.18;;
52918;SDS011;38793;52.690;6.812;2023-04-24T02:12:06;4.77;;;4.43;;
52918;SDS011;38793;52.690;6.812;2023-04-24T02:14:32;6.15;;;4.63;;
52918;SDS011;38793;52.690;6.812;2023-04-24T02:16:58;4.90;;;4.60;;
52918;SDS011;38793;52.690;6.812;2023-04-24T02:19:23;6.13;;;5.63;;
52918;SDS011;38793;52.690;6.812;2023-04-24T02:21:49;5.30;;;4.87;;
52918;SDS011;38793;52.690;6.812;2023-04-24T02:24:15;6.45;;;5.32;;
52918;SDS011;38793;52.690;6.812;2023-04-24T02:26:41;6.45;;;5.53;;
52918;SDS011;38793;52.690;6.812;2023-04-24T02:29:06;5.00;;;4.57;;
52918;SDS011;38793;52.690;6.812;2023-04-24T02:31:32;5.13;;;4.70;;
52918;SDS011;38793;52.690;6.812;2023-04-24T02:33:58;6.97;;;4.70;;
52918;SDS011;38793;52.690;6.812;2023-04-24T02:36:24;3.87;;;3.10;;
52918;SDS011;38793;52.690;6.812;2023-04-24T02:38:50;5.68;;;3.17;;
52918;SDS011;38793;52.690;6.812;2023-04-24T02:41:15;3.33;;;3.13;;
52918;SDS011;38793;52.690;6.812;2023-04-24T02:43:41;5.07;;;3.27;;
52918;SDS011;38793;52.690;6.812;2023-04-24T02:46:06;3.67;;;3.43;;
52918;SDS011;38793;52.690;6.812;2023-04-24T02:48:32;4.03;;;3.72;;
52918;SDS011;38793;52.690;6.812;2023-04-24T02:50:58;3.43;;;3.23;;
52918;SDS011;38793;52.690;6.812;2023-04-24T02:53:23;3.47;;;3.20;;
52918;SDS011;38793;52.690;6.812;2023-04-24T02:55:49;3.25;;;3.05;;
52918;SDS011;38793;52.690;6.812;2023-04-24T02:58:15;3.43;;;3.13;;
52918;SDS011;38793;52.690;6.812;2023-04-24T03:00:40;3.50;;;3.03;;
52918;SDS011;38793;52.690;6.812;2023-04-24T03:03:06;4.00;;;3.72;;
52918;SDS011;38793;52.690;6.812;2023-04-24T03:05:32;3.08;;;2.88;;
52918;SDS011;38793;52.690;6.812;2023-04-24T03:07:57;4.43;;;3.83;;
52918;SDS011;38793;52.690;6.812;2023-04-24T03:10:23;3.20;;;2.90;;
52918;SDS011;38793;52.690;6.812;2023-04-24T03:12:49;3.20;;;2.90;;
52918;SDS011;38793;52.690;6.812;2023-04-24T03:15:15;3.17;;;2.97;;
52918;SDS011;38793;52.690;6.812;2023-04-24T03:17:41;3.85;;;3.55;;
52918;SDS011;38793;52.690;6.812;2023-04-24T03:20:07;3.47;;;3.27;;
52918;SDS011;38793;52.690;6.812;2023-04-24T03:24:59;3.88;;;3.58;;
52918;SDS011;38793;52.690;6.812;2023-04-24T03:27:25;4.22;;;3.97;;
52918;SDS011;38793;52.690;6.812;2023-04-24T03:29:51;3.95;;;3.72;;
52918;SDS011;38793;52.690;6.812;2023-04-24T03:32:20;4.95;;;4.55;;
52918;SDS011;38793;52.690;6.812;2023-04-24T03:34:47;4.43;;;4.13;;
52918;SDS011;38793;52.690;6.812;2023-04-24T03:37:13;4.45;;;4.15;;
52918;SDS011;38793;52.690;6.812;2023-04-24T03:39:39;4.45;;;4.15;;
52918;SDS011;38793;52.690;6.812;2023-04-24T03:42:04;5.17;;;4.30;;
52918;SDS011;38793;52.690;6.812;2023-04-24T03:44:30;4.87;;;3.77;;
52918;SDS011;38793;52.690;6.812;2023-04-24T03:46:55;5.73;;;4.13;;
52918;SDS011;38793;52.690;6.812;2023-04-24T03:49:23;4.53;;;4.22;;
52918;SDS011;38793;52.690;6.812;2023-04-24T03:51:48;3.77;;;3.57;;
52918;SDS011;38793;52.690;6.812;2023-04-24T03:54:14;4.30;;;3.90;;
52918;SDS011;38793;52.690;6.812;2023-04-24T03:56:40;4.63;;;4.23;;
52918;SDS011;38793;52.690;6.812;2023-04-24T03:59:05;4.73;;;4.30;;
52918;SDS011;38793;52.690;6.812;2023-04-24T04:01:31;7.73;;;4.93;;
52918;SDS011;38793;52.690;6.812;2023-04-24T04:03:56;5.10;;;4.70;;
52918;SDS011;38793;52.690;6.812;2023-04-24T04:06:22;6.53;;;5.90;;
52918;SDS011;38793;52.690;6.812;2023-04-24T04:08:47;6.50;;;6.00;;
52918;SDS011;38793;52.690;6.812;2023-04-24T04:11:13;8.63;;;6.50;;
52918;SDS011;38793;52.690;6.812;2023-04-24T04:13:39;7.95;;;7.25;;
52918;SDS011;38793;52.690;6.812;2023-04-24T04:16:04;7.20;;;6.60;;
52918;SDS011;38793;52.690;6.812;2023-04-24T04:18:30;7.22;;;6.53;;
52918;SDS011;38793;52.690;6.812;2023-04-24T04:20:56;7.30;;;6.27;;
52918;SDS011;38793;52.690;6.812;2023-04-24T04:23:22;8.63;;;7.47;;
52918;SDS011;38793;52.690;6.812;2023-04-24T04:25:48;7.22;;;6.63;;
52918;SDS011;38793;52.690;6.812;2023-04-24T04:28:14;6.70;;;6.13;;
52918;SDS011;38793;52.690;6.812;2023-04-24T04:30:40;7.43;;;6.83;;
52918;SDS011;38793;52.690;6.812;2023-04-24T04:33:06;8.02;;;7.30;;
52918;SDS011;38793;52.690;6.812;2023-04-24T04:35:33;7.22;;;6.53;;
52918;SDS011;38793;52.690;6.812;2023-04-24T04:37:58;8.32;;;6.97;;
52918;SDS011;38793;52.690;6.812;2023-04-24T04:40:24;7.20;;;6.20;;
52918;SDS011;38793;52.690;6.812;2023-04-24T04:42:50;7.07;;;6.43;;
52918;SDS011;38793;52.690;6.812;2023-04-24T04:45:17;8.57;;;7.15;;
52918;SDS011;38793;52.690;6.812;2023-04-24T04:47:43;6.82;;;5.97;;
52918;SDS011;38793;52.690;6.812;2023-04-24T04:50:09;6.53;;;6.00;;
52918;SDS011;38793;52.690;6.812;2023-04-24T04:52:35;6.80;;;6.20;;
52918;SDS011;38793;52.690;6.812;2023-04-24T04:55:01;6.83;;;6.30;;
52918;SDS011;38793;52.690;6.812;2023-04-24T04:57:27;6.97;;;6.35;;
52918;SDS011;38793;52.690;6.812;2023-04-24T04:59:53;7.05;;;6.47;;
52918;SDS011;38793;52.690;6.812;2023-04-24T05:02:18;8.10;;;7.27;;
52918;SDS011;38793;52.690;6.812;2023-04-24T05:04:44;7.50;;;6.45;;
52918;SDS011;38793;52.690;6.812;2023-04-24T05:07:10;5.60;;;5.10;;
52918;SDS011;38793;52.690;6.812;2023-04-24T05:09:36;6.07;;;5.57;;
52918;SDS011;38793;52.690;6.812;2023-04-24T05:12:02;5.80;;;5.15;;
52918;SDS011;38793;52.690;6.812;2023-04-24T05:14:28;5.93;;;4.85;;
52918;SDS011;38793;52.690;6.812;2023-04-24T05:16:53;4.47;;;4.07;;
52918;SDS011;38793;52.690;6.812;2023-04-24T05:19:19;4.43;;;4.13;;
52918;SDS011;38793;52.690;6.812;2023-04-24T05:21:45;4.07;;;3.60;;
52918;SDS011;38793;52.690;6.812;2023-04-24T05:24:10;3.75;;;3.50;;
52918;SDS011;38793;52.690;6.812;2023-04-24T05:26:36;3.50;;;3.20;;
52918;SDS011;38793;52.690;6.812;2023-04-24T05:29:02;4.50;;;3.05;;
52918;SDS011;38793;52.690;6.812;2023-04-24T05:31:29;3.10;;;2.88;;
52918;SDS011;38793;52.690;6.812;2023-04-24T05:33:54;2.83;;;2.63;;
52918;SDS011;38793;52.690;6.812;2023-04-24T05:36:20;2.25;;;2.15;;
52918;SDS011;38793;52.690;6.812;2023-04-24T05:38:45;4.13;;;3.72;;
52918;SDS011;38793;52.690;6.812;2023-04-24T05:41:11;3.33;;;3.13;;
52918;SDS011;38793;52.690;6.812;2023-04-24T05:43:37;4.33;;;3.93;;
52918;SDS011;38793;52.690;6.812;2023-04-24T05:46:02;4.80;;;4.40;;
52918;SDS011;38793;52.690;6.812;2023-04-24T05:48:28;4.43;;;4.13;;
52918;SDS011;38793;52.690;6.812;2023-04-24T05:50:53;4.40;;;4.10;;
52918;SDS011;38793;52.690;6.812;2023-04-24T05:53:19;5.20;;;4.70;;
52918;SDS011;38793;52.690;6.812;2023-04-24T05:55:44;3.37;;;3.07;;
52918;SDS011;38793;52.690;6.812;2023-04-24T05:58:10;4.78;;;2.65;;
52918;SDS011;38793;52.690;6.812;2023-04-24T06:03:04;3.35;;;2.67;;
52918;SDS011;38793;52.690;6.812;2023-04-24T06:05:30;2.90;;;2.70;;
52918;SDS011;38793;52.690;6.812;2023-04-24T06:07:56;2.95;;;2.63;;
52918;SDS011;38793;52.690;6.812;2023-04-24T06:10:21;2.73;;;2.50;;
52918;SDS011;38793;52.690;6.812;2023-04-24T06:12:47;2.63;;;2.43;;
52918;SDS011;38793;52.690;6.812;2023-04-24T06:15:13;2.27;;;1.90;;
52918;SDS011;38793;52.690;6.812;2023-04-24T06:17:38;2.57;;;2.23;;
52918;SDS011;38793;52.690;6.812;2023-04-24T06:20:04;1.40;;;1.30;;
52918;SDS011;38793;52.690;6.812;2023-04-24T06:22:31;2.05;;;1.80;;
52918;SDS011;38793;52.690;6.812;2023-04-24T06:24:57;2.63;;;2.42;;
52918;SDS011;38793;52.690;6.812;2023-04-24T06:27:23;2.43;;;2.27;;
52918;SDS011;38793;52.690;6.812;2023-04-24T06:29:48;2.57;;;2.37;;
52918;SDS011;38793;52.690;6.812;2023-04-24T06:32:21;2.72;;;2.53;;
52918;SDS011;38793;52.690;6.812;2023-04-24T06:34:47;2.83;;;2.63;;
52918;SDS011;38793;52.690;6.812;2023-04-24T06:37:13;3.30;;;3.07;;
52918;SDS011;38793;52.690;6.812;2023-04-24T06:39:39;3.20;;;2.95;;
52918;SDS011;38793;52.690;6.812;2023-04-24T06:42:04;3.70;;;3.27;;
52918;SDS011;38793;52.690;6.812;2023-04-24T06:44:30;3.08;;;2.75;;
52918;SDS011;38793;52.690;6.812;2023-04-24T06:46:56;3.60;;;2.90;;
52918;SDS011;38793;52.690;6.812;2023-04-24T06:49:21;3.43;;;2.80;;
52918;SDS011;38793;52.690;6.812;2023-04-24T06:51:47;3.87;;;3.10;;
52918;SDS011;38793;52.690;6.812;2023-04-24T06:54:12;5.47;;;3.63;;
52918;SDS011;38793;52.690;6.812;2023-04-24T06:56:38;3.60;;;3.27;;
52918;SDS011;38793;52.690;6.812;2023-04-24T06:59:03;3.13;;;2.73;;
52918;SDS011;38793;52.690;6.812;2023-04-24T07:01:29;4.22;;;3.40;;
52918;SDS011;38793;52.690;6.812;2023-04-24T07:03:55;3.97;;;3.53;;
52918;SDS011;38793;52.690;6.812;2023-04-24T07:06:20;3.57;;;3.10;;
52918;SDS011;38793;52.690;6.812;2023-04-24T07:08:47;3.53;;;3.13;;
52918;SDS011;38793;52.690;6.812;2023-04-24T07:11:13;6.35;;;2.88;;
52918;SDS011;38793;52.690;6.812;2023-04-24T07:13:39;5.43;;;2.27;;
52918;SDS011;38793;52.690;6.812;2023-04-24T07:16:06;3.20;;;2.20;;
52918;SDS011;38793;52.690;6.812;2023-04-24T07:18:33;2.63;;;2.42;;
52918;SDS011;38793;52.690;6.812;2023-04-24T07:20:59;3.33;;;2.40;;
52918;SDS011;38793;52.690;6.812;2023-04-24T07:23:24;3.13;;;2.27;;
52918;SDS011;38793;52.690;6.812;2023-04-24T07:25:50;5.60;;;2.85;;
52918;SDS011;38793;52.690;6.812;2023-04-24T07:28:15;2.15;;;2.00;;
52918;SDS011;38793;52.690;6.812;2023-04-24T07:30:42;1.90;;;1.65;;
52918;SDS011;38793;52.690;6.812;2023-04-24T07:33:08;2.30;;;1.65;;
52918;SDS011;38793;52.690;6.812;2023-04-24T07:35:36;5.00;;;2.25;;
52918;SDS011;38793;52.690;6.812;2023-04-24T07:38:01;3.72;;;2.47;;
52918;SDS011;38793;52.690;6.812;2023-04-24T07:40:27;4.80;;;2.20;;
52918;SDS011;38793;52.690;6.812;2023-04-24T07:42:53;2.30;;;1.97;;
52918;SDS011;38793;52.690;6.812;2023-04-24T07:45:18;2.10;;;1.97;;
52918;SDS011;38793;52.690;6.812;2023-04-24T07:47:44;2.03;;;1.87;;
52918;SDS011;38793;52.690;6.812;2023-04-24T07:50:10;2.85;;;2.22;;
52918;SDS011;38793;52.690;6.812;2023-04-24T07:52:37;3.67;;;2.50;;
52918;SDS011;38793;52.690;6.812;2023-04-24T07:55:03;2.33;;;2.13;;
52918;SDS011;38793;52.690;6.812;2023-04-24T07:59:55;6.88;;;3.17;;
52918;SDS011;38793;52.690;6.812;2023-04-24T08:02:20;6.33;;;3.10;;
52918;SDS011;38793;52.690;6.812;2023-04-24T08:04:51;4.90;;;3.53;;
52918;SDS011;38793;52.690;6.812;2023-04-24T08:07:18;5.13;;;4.30;;
52918;SDS011;38793;52.690;6.812;2023-04-24T08:09:44;5.53;;;4.35;;
52918;SDS011;38793;52.690;6.812;2023-04-24T08:12:09;4.77;;;4.37;;
52918;SDS011;38793;52.690;6.812;2023-04-24T08:14:35;4.85;;;4.05;;
52918;SDS011;38793;52.690;6.812;2023-04-24T08:17:01;7.10;;;4.23;;
52918;SDS011;38793;52.690;6.812;2023-04-24T08:21:53;7.57;;;3.90;;
52918;SDS011;38793;52.690;6.812;2023-04-24T08:24:18;8.45;;;4.50;;
52918;SDS011;38793;52.690;6.812;2023-04-24T08:26:44;4.13;;;3.73;;
52918;SDS011;38793;52.690;6.812;2023-04-24T08:29:10;6.57;;;4.60;;
52918;SDS011;38793;52.690;6.812;2023-04-24T08:31:35;9.63;;;4.30;;
52918;SDS011;38793;52.690;6.812;2023-04-24T08:34:01;4.85;;;3.63;;
52918;SDS011;38793;52.690;6.812;2023-04-24T08:36:27;6.03;;;3.27;;
52918;SDS011;38793;52.690;6.812;2023-04-24T08:38:52;4.35;;;2.25;;
52918;SDS011;38793;52.690;6.812;2023-04-24T08:41:18;4.23;;;3.03;;
52918;SDS011;38793;52.690;6.812;2023-04-24T08:43:47;2.63;;;2.22;;
52918;SDS011;38793;52.690;6.812;2023-04-24T08:46:15;3.75;;;2.20;;
52918;SDS011;38793;52.690;6.812;2023-04-24T08:48:41;3.00;;;2.50;;
52918;SDS011;38793;52.690;6.812;2023-04-24T08:51:07;2.97;;;2.25;;
52918;SDS011;38793;52.690;6.812;2023-04-24T08:53:34;2.78;;;2.35;;
52918;SDS011;38793;52.690;6.812;2023-04-24T08:56:01;6.65;;;2.70;;
52918;SDS011;38793;52.690;6.812;2023-04-24T09:00:56;4.63;;;2.63;;
52918;SDS011;38793;52.690;6.812;2023-04-24T09:03:23;6.85;;;4.38;;
52918;SDS011;38793;52.690;6.812;2023-04-24T09:05:49;12.82;;;5.05;;
52918;SDS011;38793;52.690;6.812;2023-04-24T09:08:19;10.52;;;5.43;;
52918;SDS011;38793;52.690;6.812;2023-04-24T09:10:47;10.10;;;5.95;;
52918;SDS011;38793;52.690;6.812;2023-04-24T09:13:12;8.47;;;6.00;;
52918;SDS011;38793;52.690;6.812;2023-04-24T09:15:40;10.95;;;6.72;;
52918;SDS011;38793;52.690;6.812;2023-04-24T09:18:06;11.55;;;7.05;;
52918;SDS011;38793;52.690;6.812;2023-04-24T09:20:32;10.82;;;6.85;;
52918;SDS011;38793;52.690;6.812;2023-04-24T09:22:58;9.63;;;7.25;;
52918;SDS011;38793;52.690;6.812;2023-04-24T09:25:34;10.48;;;7.43;;
52918;SDS011;38793;52.690;6.812;2023-04-24T09:28:03;11.27;;;7.70;;
52918;SDS011;38793;52.690;6.812;2023-04-24T09:30:31;12.95;;;8.60;;
52918;SDS011;38793;52.690;6.812;2023-04-24T09:33:09;17.48;;;10.38;;
52918;SDS011;38793;52.690;6.812;2023-04-24T09:35:42;22.23;;;12.45;;
52918;SDS011;38793;52.690;6.812;2023-04-24T09:38:16;23.35;;;14.55;;
52918;SDS011;38793;52.690;6.812;2023-04-24T09:40:42;20.30;;;15.27;;
52918;SDS011;38793;52.690;6.812;2023-04-24T09:43:10;20.75;;;14.23;;
52918;SDS011;38793;52.690;6.812;2023-04-24T09:45:37;30.10;;;15.38;;
52918;SDS011;38793;52.690;6.812;2023-04-24T09:48:04;21.60;;;15.00;;
52918;SDS011;38793;52.690;6.812;2023-04-24T09:50:31;20.27;;;13.52;;
52918;SDS011;38793;52.690;6.812;2023-04-24T09:53:01;17.45;;;12.93;;
52918;SDS011;38793;52.690;6.812;2023-04-24T09:55:28;20.08;;;13.32;;
52918;SDS011;38793;52.690;6.812;2023-04-24T09:57:56;25.02;;;14.75;;
52918;SDS011;38793;52.690;6.812;2023-04-24T10:00:29;17.05;;;13.63;;
52918;SDS011;38793;52.690;6.812;2023-04-24T10:03:00;31.33;;;15.50;;
52918;SDS011;38793;52.690;6.812;2023-04-24T10:05:34;22.35;;;14.63;;
52918;SDS011;38793;52.690;6.812;2023-04-24T10:08:04;18.05;;;13.20;;
52918;SDS011;38793;52.690;6.812;2023-04-24T10:10:34;15.48;;;13.38;;
52918;SDS011;38793;52.690;6.812;2023-04-24T10:13:05;16.83;;;12.40;;
52918;SDS011;38793;52.690;6.812;2023-04-24T10:15:32;18.45;;;13.55;;
52918;SDS011;38793;52.690;6.812;2023-04-24T10:17:58;14.90;;;11.88;;
52918;SDS011;38793;52.690;6.812;2023-04-24T10:20:26;19.35;;;11.90;;
52918;SDS011;38793;52.690;6.812;2023-04-24T10:22:54;15.45;;;12.20;;
52918;SDS011;38793;52.690;6.812;2023-04-24T10:25:24;16.83;;;11.57;;
52918;SDS011;38793;52.690;6.812;2023-04-24T10:27:52;18.65;;;11.27;;
52918;SDS011;38793;52.690;6.812;2023-04-24T10:30:22;24.58;;;10.20;;
52918;SDS011;38793;52.690;6.812;2023-04-24T10:32:48;12.57;;;9.00;;
52918;SDS011;38793;52.690;6.812;2023-04-24T10:35:14;16.35;;;9.60;;
52918;SDS011;38793;52.690;6.812;2023-04-24T10:37:46;20.60;;;8.38;;
52918;SDS011;38793;52.690;6.812;2023-04-24T10:40:30;17.55;;;8.77;;
52918;SDS011;38793;52.690;6.812;2023-04-24T10:43:03;13.80;;;7.75;;
52918;SDS011;38793;52.690;6.812;2023-04-24T10:45:36;11.40;;;6.72;;
52918;SDS011;38793;52.690;6.812;2023-04-24T10:48:08;11.93;;;6.70;;
52918;SDS011;38793;52.690;6.812;2023-04-24T10:53:12;13.20;;;3.85;;
52918;SDS011;38793;52.690;6.812;2023-04-24T10:58:13;9.30;;;2.53;;
52918;SDS011;38793;52.690;6.812;2023-04-24T11:00:40;4.65;;;2.83;;
52918;SDS011;38793;52.690;6.812;2023-04-24T11:03:28;9.07;;;2.83;;
52918;SDS011;38793;52.690;6.812;2023-04-24T11:05:59;8.90;;;3.03;;
52918;SDS011;38793;52.690;6.812;2023-04-24T11:08:37;10.10;;;2.78;;
52918;SDS011;38793;52.690;6.812;2023-04-24T11:11:11;6.38;;;2.83;;
52918;SDS011;38793;52.690;6.812;2023-04-24T11:19:07;8.63;;;3.40;;
52918;SDS011;38793;52.690;6.812;2023-04-24T11:27:06;11.55;;;2.83;;
52918;SDS011;38793;52.690;6.812;2023-04-24T11:29:43;9.30;;;2.20;;
52918;SDS011;38793;52.690;6.812;2023-04-24T11:32:35;14.25;;;2.50;;
52918;SDS011;38793;52.690;6.812;2023-04-24T11:37:39;10.40;;;2.45;;
52918;SDS011;38793;52.690;6.812;2023-04-24T11:40:07;7.80;;;3.05;;
52918;SDS011;38793;52.690;6.812;2023-04-24T11:42:37;7.22;;;2.83;;
52918;SDS011;38793;52.690;6.812;2023-04-24T11:47:40;8.52;;;3.20;;
52918;SDS011;38793;52.690;6.812;2023-04-24T11:50:07;8.82;;;2.63;;
52918;SDS011;38793;52.690;6.812;2023-04-24T11:52:40;7.88;;;2.25;;
52918;SDS011;38793;52.690;6.812;2023-04-24T11:55:07;13.30;;;3.10;;
52918;SDS011;38793;52.690;6.812;2023-04-24T11:57:52;11.57;;;3.40;;
52918;SDS011;38793;52.690;6.812;2023-04-24T12:00:39;11.80;;;2.70;;
52918;SDS011;38793;52.690;6.812;2023-04-24T12:03:11;6.75;;;2.50;;
52918;SDS011;38793;52.690;6.812;2023-04-24T12:05:37;9.60;;;2.30;;
52918;SDS011;38793;52.690;6.812;2023-04-24T12:08:03;11.23;;;2.42;;
52918;SDS011;38793;52.690;6.812;2023-04-24T12:10:30;8.15;;;1.40;;
52918;SDS011;38793;52.690;6.812;2023-04-24T12:12:57;5.13;;;1.17;;
52918;SDS011;38793;52.690;6.812;2023-04-24T12:17:53;8.10;;;1.85;;
52918;SDS011;38793;52.690;6.812;2023-04-24T12:20:29;5.90;;;1.30;;
52918;SDS011;38793;52.690;6.812;2023-04-24T12:22:57;9.70;;;1.65;;
52918;SDS011;38793;52.690;6.812;2023-04-24T12:25:33;10.35;;;1.60;;
52918;SDS011;38793;52.690;6.812;2023-04-24T12:30:34;5.00;;;0.85;;
52918;SDS011;38793;52.690;6.812;2023-04-24T12:33:03;6.20;;;1.25;;
52918;SDS011;38793;52.690;6.812;2023-04-24T12:35:30;3.65;;;0.98;;
52918;SDS011;38793;52.690;6.812;2023-04-24T12:38:21;9.75;;;1.95;;
52918;SDS011;38793;52.690;6.812;2023-04-24T12:40:47;3.97;;;1.15;;
52918;SDS011;38793;52.690;6.812;2023-04-24T12:43:13;8.80;;;1.97;;
52918;SDS011;38793;52.690;6.812;2023-04-24T12:45:45;4.00;;;0.80;;
52918;SDS011;38793;52.690;6.812;2023-04-24T12:48:12;6.43;;;1.17;;
52918;SDS011;38793;52.690;6.812;2023-04-24T12:50:41;4.82;;;1.13;;
52918;SDS011;38793;52.690;6.812;2023-04-24T12:53:08;5.65;;;1.13;;
52918;SDS011;38793;52.690;6.812;2023-04-24T12:55:34;1.88;;;0.55;;
52918;SDS011;38793;52.690;6.812;2023-04-24T12:57:59;3.78;;;0.73;;
52918;SDS011;38793;52.690;6.812;2023-04-24T13:00:26;3.85;;;0.80;;
52918;SDS011;38793;52.690;6.812;2023-04-24T13:02:52;2.42;;;0.50;;
52918;SDS011;38793;52.690;6.812;2023-04-24T13:05:18;4.87;;;0.63;;
52918;SDS011;38793;52.690;6.812;2023-04-24T13:07:43;9.40;;;0.50;;
52918;SDS011;38793;52.690;6.812;2023-04-24T13:10:09;2.15;;;0.45;;
52918;SDS011;38793;52.690;6.812;2023-04-24T13:12:35;3.30;;;0.68;;
52918;SDS011;38793;52.690;6.812;2023-04-24T13:15:01;4.95;;;0.30;;
52918;SDS011;38793;52.690;6.812;2023-04-24T13:17:27;3.92;;;0.43;;
52918;SDS011;38793;52.690;6.812;2023-04-24T13:19:53;2.57;;;0.63;;
52918;SDS011;38793;52.690;6.812;2023-04-24T13:22:20;3.45;;;0.60;;
52918;SDS011;38793;52.690;6.812;2023-04-24T13:24:45;2.97;;;0.30;;
52918;SDS011;38793;52.690;6.812;2023-04-24T13:27:13;2.70;;;0.47;;
52918;SDS011;38793;52.690;6.812;2023-04-24T13:29:39;9.18;;;0.82;;
52918;SDS011;38793;52.690;6.812;2023-04-24T13:32:05;2.85;;;0.50;;
52918;SDS011;38793;52.690;6.812;2023-04-24T13:34:31;4.50;;;0.40;;
52918;SDS011;38793;52.690;6.812;2023-04-24T13:36:57;4.13;;;1.15;;
52918;SDS011;38793;52.690;6.812;2023-04-24T13:39:23;4.82;;;0.65;;
52918;SDS011;38793;52.690;6.812;2023-04-24T13:41:50;2.42;;;0.45;;
52918;SDS011;38793;52.690;6.812;2023-04-24T13:44:16;4.38;;;0.40;;
52918;SDS011;38793;52.690;6.812;2023-04-24T13:46:43;4.53;;;0.50;;
52918;SDS011;38793;52.690;6.812;2023-04-24T13:49:10;4.07;;;1.17;;
52918;SDS011;38793;52.690;6.812;2023-04-24T13:51:37;1.45;;;0.40;;
52918;SDS011;38793;52.690;6.812;2023-04-24T13:54:02;2.90;;;0.40;;
52918;SDS011;38793;52.690;6.812;2023-04-24T13:56:28;5.05;;;0.70;;
52918;SDS011;38793;52.690;6.812;2023-04-24T13:58:54;8.70;;;1.27;;
52918;SDS011;38793;52.690;6.812;2023-04-24T14:01:19;5.40;;;0.60;;
52918;SDS011;38793;52.690;6.812;2023-04-24T14:03:49;6.00;;;0.80;;
52918;SDS011;38793;52.690;6.812;2023-04-24T14:06:15;4.30;;;0.40;;
52918;SDS011;38793;52.690;6.812;2023-04-24T14:08:40;4.37;;;0.70;;
52918;SDS011;38793;52.690;6.812;2023-04-24T14:11:06;5.18;;;0.50;;
52918;SDS011;38793;52.690;6.812;2023-04-24T14:13:31;3.60;;;0.40;;
52918;SDS011;38793;52.690;6.812;2023-04-24T14:15:57;3.17;;;1.13;;
52918;SDS011;38793;52.690;6.812;2023-04-24T14:18:23;2.73;;;0.90;;
52918;SDS011;38793;52.690;6.812;2023-04-24T14:20:49;5.07;;;1.13;;
52918;SDS011;38793;52.690;6.812;2023-04-24T14:23:15;3.43;;;0.60;;
52918;SDS011;38793;52.690;6.812;2023-04-24T14:25:40;6.57;;;0.80;;
52918;SDS011;38793;52.690;6.812;2023-04-24T14:28:06;5.73;;;1.53;;
52918;SDS011;38793;52.690;6.812;2023-04-24T14:30:32;2.78;;;0.73;;
52918;SDS011;38793;52.690;6.812;2023-04-24T14:32:57;7.90;;;1.07;;
52918;SDS011;38793;52.690;6.812;2023-04-24T14:35:23;5.90;;;2.23;;
52918;SDS011;38793;52.690;6.812;2023-04-24T14:37:49;15.55;;;2.20;;
52918;SDS011;38793;52.690;6.812;2023-04-24T14:40:14;9.50;;;1.20;;
52918;SDS011;38793;52.690;6.812;2023-04-24T14:42:40;10.73;;;1.43;;
52918;SDS011;38793;52.690;6.812;2023-04-24T14:45:06;5.97;;;2.00;;
52918;SDS011;38793;52.690;6.812;2023-04-24T14:47:33;7.35;;;1.20;;
52918;SDS011;38793;52.690;6.812;2023-04-24T14:49:58;12.70;;;2.22;;
52918;SDS011;38793;52.690;6.812;2023-04-24T14:52:24;8.75;;;1.85;;
52918;SDS011;38793;52.690;6.812;2023-04-24T14:54:50;8.27;;;1.63;;
52918;SDS011;38793;52.690;6.812;2023-04-24T14:57:15;6.77;;;1.47;;
52918;SDS011;38793;52.690;6.812;2023-04-24T14:59:41;3.53;;;1.70;;
52918;SDS011;38793;52.690;6.812;2023-04-24T15:02:06;5.17;;;1.30;;
52918;SDS011;38793;52.690;6.812;2023-04-24T15:04:32;9.47;;;1.90;;
52918;SDS011;38793;52.690;6.812;2023-04-24T15:06:58;11.37;;;2.70;;
52918;SDS011;38793;52.690;6.812;2023-04-24T15:09:24;11.43;;;2.20;;
52918;SDS011;38793;52.690;6.812;2023-04-24T15:11:51;7.95;;;1.67;;
52918;SDS011;38793;52.690;6.812;2023-04-24T15:14:17;12.53;;;1.90;;
52918;SDS011;38793;52.690;6.812;2023-04-24T15:19:09;20.92;;;2.35;;
52918;SDS011;38793;52.690;6.812;2023-04-24T15:21:35;15.32;;;2.25;;
52918;SDS011;38793;52.690;6.812;2023-04-24T15:24:02;7.57;;;1.40;;
52918;SDS011;38793;52.690;6.812;2023-04-24T15:26:28;11.75;;;1.70;;
52918;SDS011;38793;52.690;6.812;2023-04-24T15:28:53;13.57;;;2.08;;
52918;SDS011;38793;52.690;6.812;2023-04-24T15:31:19;13.48;;;1.92;;